sensor_id;sensor_type;location;lat;lon;timestamp;pressure;altitude;pressure_sealevel;temperature;humidity
84255;BME280;74400;44.692;18.998;2024-02-16T00:01:45;100503.78;;;4.19;68.95
84255;BME280;74400;44.692;18.998;2024-02-16T00:04:11;100502.31;;;4.11;69.39
84255;BME280;74400;44.692;18.998;2024-02-16T00:06:36;100498.88;;;4.12;69.50
84255;BME280;74400;44.692;18.998;2024-02-16T00:09:02;100503.13;;;4.13;69.13
84255;BME280;74400;44.692;18.998;2024-02-16T00:11:28;100505.00;;;4.06;69.15
84255;BME280;74400;44.692;18.998;2024-02-16T00:13:54;100507.75;;;3.98;69.56
84255;BME280;74400;44.692;18.998;2024-02-16T00:16:20;100496.91;;;3.92;70.22
84255;BME280;74400;44.692;18.998;2024-02-16T00:18:46;100501.13;;;3.93;70.15
84255;BME280;74400;44.692;18.998;2024-02-16T00:21:12;100492.72;;;3.91;69.85
84255;BME280;74400;44.692;18.998;2024-02-16T00:23:37;100496.09;;;3.91;69.73
84255;BME280;74400;44.692;18.998;2024-02-16T00:26:03;100487.56;;;3.92;69.74
84255;BME280;74400;44.692;18.998;2024-02-16T00:28:32;100489.97;;;3.97;69.50
84255;BME280;74400;44.692;18.998;2024-02-16T00:30:58;100485.72;;;3.97;68.95
84255;BME280;74400;44.692;18.998;2024-02-16T00:33:23;100487.38;;;3.98;69.57
84255;BME280;74400;44.692;18.998;2024-02-16T00:35:49;100497.56;;;3.98;69.72
84255;BME280;74400;44.692;18.998;2024-02-16T00:38:15;100488.09;;;4.03;68.89
84255;BME280;74400;44.692;18.998;2024-02-16T00:40:40;100482.41;;;3.95;68.58
84255;BME280;74400;44.692;18.998;2024-02-16T00:43:10;100486.97;;;3.84;69.88
84255;BME280;74400;44.692;18.998;2024-02-16T00:45:36;100482.03;;;3.78;70.12
84255;BME280;74400;44.692;18.998;2024-02-16T00:48:02;100484.69;;;3.75;69.81
84255;BME280;74400;44.692;18.998;2024-02-16T00:50:29;100476.28;;;3.71;69.72
84255;BME280;74400;44.692;18.998;2024-02-16T00:52:54;100473.88;;;3.67;69.61
84255;BME280;74400;44.692;18.998;2024-02-16T00:55:20;100480.72;;;3.65;70.03
84255;BME280;74400;44.692;18.998;2024-02-16T00:57:46;100473.03;;;3.66;70.60
84255;BME280;74400;44.692;18.998;2024-02-16T01:00:12;100475.41;;;3.72;70.35
84255;BME280;74400;44.692;18.998;2024-02-16T01:02:38;100470.38;;;3.71;70.45
84255;BME280;74400;44.692;18.998;2024-02-16T01:05:04;100474.63;;;3.70;69.87
84255;BME280;74400;44.692;18.998;2024-02-16T01:07:30;100468.63;;;3.73;70.20
84255;BME280;74400;44.692;18.998;2024-02-16T01:09:57;100471.03;;;3.77;69.42
84255;BME280;74400;44.692;18.998;2024-02-16T01:12:23;100468.44;;;3.79;69.92
84255;BME280;74400;44.692;18.998;2024-02-16T01:14:48;100468.63;;;3.73;69.78
84255;BME280;74400;44.692;18.998;2024-02-16T01:17:14;100468.06;;;3.63;70.27
84255;BME280;74400;44.692;18.998;2024-02-16T01:19:40;100461.69;;;3.48;70.12
84255;BME280;74400;44.692;18.998;2024-02-16T01:22:05;100458.56;;;3.39;70.66
84255;BME280;74400;44.692;18.998;2024-02-16T01:24:31;100456.13;;;3.34;70.59
84255;BME280;74400;44.692;18.998;2024-02-16T01:26:57;100460.16;;;3.43;70.71
84255;BME280;74400;44.692;18.998;2024-02-16T01:29:23;100455.78;;;3.48;69.83
84255;BME280;74400;44.692;18.998;2024-02-16T01:31:49;100444.00;;;3.44;70.40
84255;BME280;74400;44.692;18.998;2024-02-16T01:34:14;100450.72;;;3.46;70.55
84255;BME280;74400;44.692;18.998;2024-02-16T01:36:40;100446.25;;;3.55;70.01
84255;BME280;74400;44.692;18.998;2024-02-16T01:39:06;100449.72;;;3.52;70.32
84255;BME280;74400;44.692;18.998;2024-02-16T01:41:33;100441.38;;;3.47;70.09
84255;BME280;74400;44.692;18.998;2024-02-16T01:43:59;100444.97;;;3.40;69.95
84255;BME280;74400;44.692;18.998;2024-02-16T01:46:25;100439.13;;;3.36;70.16
84255;BME280;74400;44.692;18.998;2024-02-16T01:48:52;100434.28;;;3.27;70.62
84255;BME280;74400;44.692;18.998;2024-02-16T01:51:18;100442.00;;;3.24;70.53
84255;BME280;74400;44.692;18.998;2024-02-16T01:53:44;100437.88;;;3.20;70.55
84255;BME280;74400;44.692;18.998;2024-02-16T01:56:11;100432.28;;;3.07;71.02
84255;BME280;74400;44.692;18.998;2024-02-16T01:58:37;100430.72;;;3.03;71.40
84255;BME280;74400;44.692;18.998;2024-02-16T02:01:03;100430.19;;;2.90;71.48
84255;BME280;74400;44.692;18.998;2024-02-16T02:03:29;100434.47;;;2.88;72.24
84255;BME280;74400;44.692;18.998;2024-02-16T02:05:55;100421.75;;;2.88;71.82
84255;BME280;74400;44.692;18.998;2024-02-16T02:08:21;100427.72;;;2.87;71.86
84255;BME280;74400;44.692;18.998;2024-02-16T02:10:47;100424.19;;;2.93;72.00
84255;BME280;74400;44.692;18.998;2024-02-16T02:13:13;100420.72;;;2.97;72.22
84255;BME280;74400;44.692;18.998;2024-02-16T02:15:38;100419.94;;;2.93;71.92
84255;BME280;74400;44.692;18.998;2024-02-16T02:18:04;100422.59;;;2.89;72.23
84255;BME280;74400;44.692;18.998;2024-02-16T02:20:30;100421.03;;;2.85;71.92
84255;BME280;74400;44.692;18.998;2024-02-16T02:22:56;100406.75;;;2.79;72.24
84255;BME280;74400;44.692;18.998;2024-02-16T02:25:21;100422.84;;;2.80;72.54
84255;BME280;74400;44.692;18.998;2024-02-16T02:27:47;100422.53;;;2.92;72.55
84255;BME280;74400;44.692;18.998;2024-02-16T02:30:13;100417.16;;;3.03;72.05
84255;BME280;74400;44.692;18.998;2024-02-16T02:32:38;100416.28;;;3.04;72.40
84255;BME280;74400;44.692;18.998;2024-02-16T02:35:05;100412.09;;;3.01;71.25
84255;BME280;74400;44.692;18.998;2024-02-16T02:37:31;100420.78;;;2.94;71.77
84255;BME280;74400;44.692;18.998;2024-02-16T02:39:56;100415.78;;;2.91;72.02
84255;BME280;74400;44.692;18.998;2024-02-16T02:42:22;100407.44;;;2.86;72.23
84255;BME280;74400;44.692;18.998;2024-02-16T02:44:48;100408.22;;;2.88;72.32
84255;BME280;74400;44.692;18.998;2024-02-16T02:47:16;100407.19;;;2.95;72.33
84255;BME280;74400;44.692;18.998;2024-02-16T02:49:43;100407.28;;;2.92;72.64
84255;BME280;74400;44.692;18.998;2024-02-16T02:52:09;100403.97;;;2.90;72.78
84255;BME280;74400;44.692;18.998;2024-02-16T02:54:35;100409.72;;;2.95;72.96
84255;BME280;74400;44.692;18.998;2024-02-16T02:57:03;100396.13;;;2.97;72.68
84255;BME280;74400;44.692;18.998;2024-02-16T02:59:29;100401.28;;;2.94;72.52
84255;BME280;74400;44.692;18.998;2024-02-16T03:01:55;100398.94;;;2.87;73.03
84255;BME280;74400;44.692;18.998;2024-02-16T03:04:20;100397.38;;;2.81;73.15
84255;BME280;74400;44.692;18.998;2024-02-16T03:06:46;100402.72;;;2.72;72.96
84255;BME280;74400;44.692;18.998;2024-02-16T03:09:12;100393.50;;;2.68;72.94
84255;BME280;74400;44.692;18.998;2024-02-16T03:11:38;100390.16;;;2.66;72.63
84255;BME280;74400;44.692;18.998;2024-02-16T03:14:04;100395.31;;;2.63;72.83
84255;BME280;74400;44.692;18.998;2024-02-16T03:16:31;100399.72;;;2.56;73.57
84255;BME280;74400;44.692;18.998;2024-02-16T03:18:57;100402.28;;;2.55;73.23
84255;BME280;74400;44.692;18.998;2024-02-16T03:21:23;100410.00;;;2.52;73.52
84255;BME280;74400;44.692;18.998;2024-02-16T03:23:48;100397.22;;;2.55;73.40
84255;BME280;74400;44.692;18.998;2024-02-16T03:26:15;100404.25;;;2.45;73.71
84255;BME280;74400;44.692;18.998;2024-02-16T03:28:43;100402.69;;;2.38;73.73
84255;BME280;74400;44.692;18.998;2024-02-16T03:31:19;100404.66;;;2.27;73.08
84255;BME280;74400;44.692;18.998;2024-02-16T03:33:46;100401.50;;;2.17;72.96
84255;BME280;74400;44.692;18.998;2024-02-16T03:36:12;100396.69;;;2.06;72.38
84255;BME280;74400;44.692;18.998;2024-02-16T03:38:43;100404.50;;;1.97;73.11
84255;BME280;74400;44.692;18.998;2024-02-16T03:41:19;100411.41;;;1.90;73.33
84255;BME280;74400;44.692;18.998;2024-02-16T03:43:46;100406.41;;;1.87;73.47
84255;BME280;74400;44.692;18.998;2024-02-16T03:46:11;100410.44;;;1.96;74.73
84255;BME280;74400;44.692;18.998;2024-02-16T03:48:38;100401.84;;;2.02;74.36
84255;BME280;74400;44.692;18.998;2024-02-16T03:51:05;100410.47;;;1.95;73.98
84255;BME280;74400;44.692;18.998;2024-02-16T03:53:31;100416.56;;;1.86;75.05
84255;BME280;74400;44.692;18.998;2024-02-16T03:55:57;100415.69;;;1.88;75.28
84255;BME280;74400;44.692;18.998;2024-02-16T03:58:23;100417.47;;;1.83;75.44
84255;BME280;74400;44.692;18.998;2024-02-16T04:00:50;100417.59;;;1.77;74.58
84255;BME280;74400;44.692;18.998;2024-02-16T04:03:16;100415.06;;;1.77;74.88
84255;BME280;74400;44.692;18.998;2024-02-16T04:05:42;100419.22;;;1.81;73.94
84255;BME280;74400;44.692;18.998;2024-02-16T04:08:08;100426.13;;;1.73;74.32
84255;BME280;74400;44.692;18.998;2024-02-16T04:10:34;100424.25;;;1.83;74.95
84255;BME280;74400;44.692;18.998;2024-02-16T04:13:02;100418.88;;;1.97;74.31
84255;BME280;74400;44.692;18.998;2024-02-16T04:15:27;100415.16;;;2.13;73.50
84255;BME280;74400;44.692;18.998;2024-02-16T04:17:53;100423.53;;;2.15;72.38
84255;BME280;74400;44.692;18.998;2024-02-16T04:20:19;100414.44;;;2.06;72.73
84255;BME280;74400;44.692;18.998;2024-02-16T04:22:45;100426.44;;;2.00;72.76
84255;BME280;74400;44.692;18.998;2024-02-16T04:25:11;100430.78;;;1.95;72.82
84255;BME280;74400;44.692;18.998;2024-02-16T04:27:37;100425.75;;;1.92;73.56
84255;BME280;74400;44.692;18.998;2024-02-16T04:30:04;100422.28;;;1.96;72.98
84255;BME280;74400;44.692;18.998;2024-02-16T04:32:30;100428.03;;;2.04;73.15
84255;BME280;74400;44.692;18.998;2024-02-16T04:34:56;100421.91;;;2.12;72.33
84255;BME280;74400;44.692;18.998;2024-02-16T04:37:22;100421.84;;;2.15;72.41
84255;BME280;74400;44.692;18.998;2024-02-16T04:39:49;100414.28;;;2.12;72.10
84255;BME280;74400;44.692;18.998;2024-02-16T04:42:15;100424.69;;;2.02;71.63
84255;BME280;74400;44.692;18.998;2024-02-16T04:44:41;100424.97;;;1.89;72.13
84255;BME280;74400;44.692;18.998;2024-02-16T04:47:07;100423.47;;;1.81;73.31
84255;BME280;74400;44.692;18.998;2024-02-16T04:49:32;100422.63;;;1.80;74.10
84255;BME280;74400;44.692;18.998;2024-02-16T04:51:58;100417.13;;;1.99;72.80
84255;BME280;74400;44.692;18.998;2024-02-16T04:54:24;100415.34;;;2.04;72.20
84255;BME280;74400;44.692;18.998;2024-02-16T04:56:50;100418.91;;;1.95;72.26
84255;BME280;74400;44.692;18.998;2024-02-16T04:59:18;100421.59;;;1.89;72.66
84255;BME280;74400;44.692;18.998;2024-02-16T05:01:44;100422.63;;;1.80;73.15
84255;BME280;74400;44.692;18.998;2024-02-16T05:04:13;100413.31;;;1.81;73.34
84255;BME280;74400;44.692;18.998;2024-02-16T05:06:45;100412.41;;;1.83;73.84
84255;BME280;74400;44.692;18.998;2024-02-16T05:09:12;100408.13;;;1.85;72.92
84255;BME280;74400;44.692;18.998;2024-02-16T05:11:45;100410.00;;;1.77;73.10
84255;BME280;74400;44.692;18.998;2024-02-16T05:14:11;100416.81;;;1.75;73.63
84255;BME280;74400;44.692;18.998;2024-02-16T05:16:46;100415.28;;;1.68;73.48
84255;BME280;74400;44.692;18.998;2024-02-16T05:19:12;100422.09;;;1.65;73.83
84255;BME280;74400;44.692;18.998;2024-02-16T05:21:37;100415.28;;;1.67;73.84
84255;BME280;74400;44.692;18.998;2024-02-16T05:24:03;100419.41;;;1.72;74.57
84255;BME280;74400;44.692;18.998;2024-02-16T05:26:29;100415.94;;;1.76;73.51
84255;BME280;74400;44.692;18.998;2024-02-16T05:28:55;100409.97;;;1.79;72.90
84255;BME280;74400;44.692;18.998;2024-02-16T05:31:20;100417.41;;;1.86;73.73
84255;BME280;74400;44.692;18.998;2024-02-16T05:34:12;100417.03;;;2.03;73.08
84255;BME280;74400;44.692;18.998;2024-02-16T05:36:39;100418.66;;;2.06;71.94
84255;BME280;74400;44.692;18.998;2024-02-16T05:39:07;100422.38;;;1.91;72.27
84255;BME280;74400;44.692;18.998;2024-02-16T05:41:35;100422.75;;;1.74;73.06
84255;BME280;74400;44.692;18.998;2024-02-16T05:46:35;100422.88;;;1.68;74.13
84255;BME280;74400;44.692;18.998;2024-02-16T05:52:16;100431.13;;;1.78;74.23
84255;BME280;74400;44.692;18.998;2024-02-16T05:57:53;100445.72;;;2.07;72.67
84255;BME280;74400;44.692;18.998;2024-02-16T06:00:20;100449.97;;;2.05;71.94
84255;BME280;74400;44.692;18.998;2024-02-16T06:02:47;100456.72;;;2.06;71.61
84255;BME280;74400;44.692;18.998;2024-02-16T06:05:13;100462.78;;;2.00;71.88
84255;BME280;74400;44.692;18.998;2024-02-16T06:08:12;100461.13;;;1.98;72.29
84255;BME280;74400;44.692;18.998;2024-02-16T06:14:30;100456.44;;;1.81;72.34
84255;BME280;74400;44.692;18.998;2024-02-16T06:17:28;100464.88;;;1.81;72.73
84255;BME280;74400;44.692;18.998;2024-02-16T06:19:54;100465.47;;;1.93;73.00
84255;BME280;74400;44.692;18.998;2024-02-16T06:22:45;100460.78;;;2.14;71.90
84255;BME280;74400;44.692;18.998;2024-02-16T06:25:11;100462.34;;;2.20;71.25
84255;BME280;74400;44.692;18.998;2024-02-16T06:27:36;100469.19;;;2.16;71.84
84255;BME280;74400;44.692;18.998;2024-02-16T06:30:03;100458.25;;;2.14;72.37
84255;BME280;74400;44.692;18.998;2024-02-16T06:32:33;100469.13;;;2.18;71.84
84255;BME280;74400;44.692;18.998;2024-02-16T06:34:59;100461.50;;;2.20;71.96
84255;BME280;74400;44.692;18.998;2024-02-16T06:37:24;100468.25;;;2.21;72.30
84255;BME280;74400;44.692;18.998;2024-02-16T06:40:18;100466.66;;;2.16;72.31
84255;BME280;74400;44.692;18.998;2024-02-16T06:42:44;100474.91;;;2.25;72.15
84255;BME280;74400;44.692;18.998;2024-02-16T06:45:12;100466.31;;;2.30;71.73
84255;BME280;74400;44.692;18.998;2024-02-16T06:52:06;100480.69;;;2.31;72.33
84255;BME280;74400;44.692;18.998;2024-02-16T06:54:35;100483.53;;;2.55;71.36
84255;BME280;74400;44.692;18.998;2024-02-16T06:57:01;100482.66;;;2.56;70.79
84255;BME280;74400;44.692;18.998;2024-02-16T06:59:27;100494.75;;;2.46;70.88
84255;BME280;74400;44.692;18.998;2024-02-16T07:01:52;100485.34;;;2.50;71.55
84255;BME280;74400;44.692;18.998;2024-02-16T07:04:18;100487.41;;;2.71;71.09
84255;BME280;74400;44.692;18.998;2024-02-16T07:06:44;100490.88;;;3.34;70.63
84255;BME280;74400;44.692;18.998;2024-02-16T07:09:11;100486.81;;;4.73;66.39
84255;BME280;74400;44.692;18.998;2024-02-16T07:11:41;100488.22;;;6.70;59.53
84255;BME280;74400;44.692;18.998;2024-02-16T07:14:08;100484.53;;;8.86;54.91
84255;BME280;74400;44.692;18.998;2024-02-16T07:16:34;100488.78;;;10.66;47.72
84255;BME280;74400;44.692;18.998;2024-02-16T07:19:00;100491.44;;;12.50;43.69
84255;BME280;74400;44.692;18.998;2024-02-16T07:21:26;100491.50;;;13.53;39.98
84255;BME280;74400;44.692;18.998;2024-02-16T07:23:53;100490.75;;;14.00;38.73
84255;BME280;74400;44.692;18.998;2024-02-16T07:26:18;100486.06;;;14.66;37.17
84255;BME280;74400;44.692;18.998;2024-02-16T07:28:44;100482.59;;;14.54;37.32
84255;BME280;74400;44.692;18.998;2024-02-16T07:31:10;100488.88;;;15.09;36.23
84255;BME280;74400;44.692;18.998;2024-02-16T07:41:44;100489.59;;;16.56;34.90
84255;BME280;74400;44.692;18.998;2024-02-16T07:47:38;100481.50;;;18.32;31.84
84255;BME280;74400;44.692;18.998;2024-02-16T07:50:06;100488.44;;;17.93;32.89
84255;BME280;74400;44.692;18.998;2024-02-16T07:52:32;100488.66;;;18.69;31.37
84255;BME280;74400;44.692;18.998;2024-02-16T07:54:58;100490.91;;;19.20;31.13
84255;BME280;74400;44.692;18.998;2024-02-16T07:57:23;100484.63;;;19.13;30.79
84255;BME280;74400;44.692;18.998;2024-02-16T07:59:49;100488.44;;;19.09;31.05
84255;BME280;74400;44.692;18.998;2024-02-16T08:02:15;100491.34;;;19.53;30.85
84255;BME280;74400;44.692;18.998;2024-02-16T08:04:47;100488.47;;;19.00;30.85
84255;BME280;74400;44.692;18.998;2024-02-16T08:07:14;100494.78;;;19.07;30.80
84255;BME280;74400;44.692;18.998;2024-02-16T08:09:39;100491.47;;;19.52;31.19
84255;BME280;74400;44.692;18.998;2024-02-16T08:12:09;100494.13;;;19.42;30.63
84255;BME280;74400;44.692;18.998;2024-02-16T08:14:35;100501.72;;;19.72;30.24
84255;BME280;74400;44.692;18.998;2024-02-16T08:17:01;100495.59;;;19.54;30.94
84255;BME280;74400;44.692;18.998;2024-02-16T08:19:32;100500.09;;;19.89;30.23
84255;BME280;74400;44.692;18.998;2024-02-16T08:22:09;100507.34;;;20.23;29.67
84255;BME280;74400;44.692;18.998;2024-02-16T08:24:37;100499.06;;;20.81;29.82
84255;BME280;74400;44.692;18.998;2024-02-16T08:30:07;100501.28;;;20.40;29.37
84255;BME280;74400;44.692;18.998;2024-02-16T08:32:35;100494.44;;;21.01;29.35
84255;BME280;74400;44.692;18.998;2024-02-16T08:35:00;100492.72;;;21.35;28.64
84255;BME280;74400;44.692;18.998;2024-02-16T08:37:26;100488.47;;;20.91;28.77
84255;BME280;74400;44.692;18.998;2024-02-16T08:39:52;100489.16;;;19.48;30.49
84255;BME280;74400;44.692;18.998;2024-02-16T08:42:50;100494.13;;;18.95;31.53
84255;BME280;74400;44.692;18.998;2024-02-16T08:45:16;100482.16;;;18.34;32.40
84255;BME280;74400;44.692;18.998;2024-02-16T08:47:43;100491.34;;;18.19;33.42
84255;BME280;74400;44.692;18.998;2024-02-16T08:50:10;100487.41;;;18.44;33.60
84255;BME280;74400;44.692;18.998;2024-02-16T08:52:37;100492.53;;;19.21;32.91
84255;BME280;74400;44.692;18.998;2024-02-16T08:55:03;100492.91;;;19.73;31.62
84255;BME280;74400;44.692;18.998;2024-02-16T08:57:31;100488.63;;;19.45;32.55
84255;BME280;74400;44.692;18.998;2024-02-16T09:00:01;100486.81;;;19.83;32.17
84255;BME280;74400;44.692;18.998;2024-02-16T09:02:26;100495.47;;;20.46;30.90
84255;BME280;74400;44.692;18.998;2024-02-16T09:04:55;100486.31;;;20.86;30.45
84255;BME280;74400;44.692;18.998;2024-02-16T09:07:21;100479.19;;;21.22;29.79
84255;BME280;74400;44.692;18.998;2024-02-16T09:09:48;100486.81;;;21.33;28.79
84255;BME280;74400;44.692;18.998;2024-02-16T09:12:13;100490.47;;;21.49;29.03
84255;BME280;74400;44.692;18.998;2024-02-16T09:14:39;100488.88;;;21.56;29.19
84255;BME280;74400;44.692;18.998;2024-02-16T09:17:05;100484.00;;;21.69;28.93
84255;BME280;74400;44.692;18.998;2024-02-16T09:19:31;100487.94;;;21.31;29.08
84255;BME280;74400;44.692;18.998;2024-02-16T09:21:56;100484.00;;;21.01;29.57
84255;BME280;74400;44.692;18.998;2024-02-16T09:24:24;100483.28;;;20.19;30.95
84255;BME280;74400;44.692;18.998;2024-02-16T09:26:54;100491.59;;;19.50;32.04
84255;BME280;74400;44.692;18.998;2024-02-16T09:29:19;100488.25;;;19.95;31.35
84255;BME280;74400;44.692;18.998;2024-02-16T09:40:12;100491.50;;;21.04;28.83
84255;BME280;74400;44.692;18.998;2024-02-16T09:42:38;100488.69;;;21.23;28.67
84255;BME280;74400;44.692;18.998;2024-02-16T09:47:38;100489.81;;;21.21;29.04
84255;BME280;74400;44.692;18.998;2024-02-16T09:50:06;100486.97;;;21.06;29.06
84255;BME280;74400;44.692;18.998;2024-02-16T09:52:37;100488.59;;;18.98;31.60
84255;BME280;74400;44.692;18.998;2024-02-16T09:59:10;100486.19;;;16.12;37.52
84255;BME280;74400;44.692;18.998;2024-02-16T10:01:38;100484.22;;;15.48;38.74
84255;BME280;74400;44.692;18.998;2024-02-16T10:04:07;100491.13;;;15.03;39.90
84255;BME280;74400;44.692;18.998;2024-02-16T10:06:45;100479.97;;;14.78;39.92
84255;BME280;74400;44.692;18.998;2024-02-16T10:09:25;100480.03;;;14.42;41.09
84255;BME280;74400;44.692;18.998;2024-02-16T10:16:14;100465.94;;;14.22;41.62
84255;BME280;74400;44.692;18.998;2024-02-16T10:19:09;100456.38;;;14.11;41.89
84255;BME280;74400;44.692;18.998;2024-02-16T10:21:38;100460.63;;;14.12;41.88
84255;BME280;74400;44.692;18.998;2024-02-16T10:26:41;100457.97;;;14.01;42.14
84255;BME280;74400;44.692;18.998;2024-02-16T10:29:46;100447.19;;;14.07;42.51
84255;BME280;74400;44.692;18.998;2024-02-16T10:32:12;100444.59;;;14.07;42.50
84255;BME280;74400;44.692;18.998;2024-02-16T10:34:40;100447.75;;;14.23;42.27
84255;BME280;74400;44.692;18.998;2024-02-16T10:37:06;100444.22;;;14.24;42.30
84255;BME280;74400;44.692;18.998;2024-02-16T10:39:34;100446.88;;;14.12;42.00
84255;BME280;74400;44.692;18.998;2024-02-16T10:42:01;100441.34;;;14.16;42.36
84255;BME280;74400;44.692;18.998;2024-02-16T10:44:30;100438.09;;;14.01;42.35
84255;BME280;74400;44.692;18.998;2024-02-16T10:46:56;100435.84;;;13.97;42.91
84255;BME280;74400;44.692;18.998;2024-02-16T10:49:23;100437.88;;;13.80;43.26
84255;BME280;74400;44.692;18.998;2024-02-16T10:55:10;100433.38;;;13.95;43.00
84255;BME280;74400;44.692;18.998;2024-02-16T10:57:36;100424.34;;;14.01;42.69
84255;BME280;74400;44.692;18.998;2024-02-16T11:00:08;100427.88;;;14.00;43.83
84255;BME280;74400;44.692;18.998;2024-02-16T11:02:54;100421.06;;;13.99;43.54
84255;BME280;74400;44.692;18.998;2024-02-16T11:09:11;100416.78;;;14.22;42.66
84255;BME280;74400;44.692;18.998;2024-02-16T11:11:52;100421.09;;;14.10;42.79
84255;BME280;74400;44.692;18.998;2024-02-16T11:14:18;100409.34;;;14.06;43.15
84255;BME280;74400;44.692;18.998;2024-02-16T11:16:47;100406.75;;;14.06;43.49
84255;BME280;74400;44.692;18.998;2024-02-16T11:19:13;100403.47;;;14.15;43.15
84255;BME280;74400;44.692;18.998;2024-02-16T11:22:05;100401.34;;;14.09;43.50
84255;BME280;74400;44.692;18.998;2024-02-16T11:24:35;100391.22;;;14.06;43.81
84255;BME280;74400;44.692;18.998;2024-02-16T11:27:05;100393.00;;;14.05;43.42
84255;BME280;74400;44.692;18.998;2024-02-16T11:29:33;100393.00;;;14.05;43.45
84255;BME280;74400;44.692;18.998;2024-02-16T11:32:01;100392.25;;;14.03;44.59
84255;BME280;74400;44.692;18.998;2024-02-16T11:34:29;100392.59;;;13.99;44.86
84255;BME280;74400;44.692;18.998;2024-02-16T11:36:55;100381.09;;;14.03;44.93
84255;BME280;74400;44.692;18.998;2024-02-16T11:39:22;100380.72;;;13.96;44.87
84255;BME280;74400;44.692;18.998;2024-02-16T11:41:48;100385.63;;;14.12;45.23
84255;BME280;74400;44.692;18.998;2024-02-16T11:44:24;100379.56;;;14.00;44.62
84255;BME280;74400;44.692;18.998;2024-02-16T11:46:53;100376.16;;;14.00;44.40
84255;BME280;74400;44.692;18.998;2024-02-16T11:49:22;100366.63;;;14.00;44.56
84255;BME280;74400;44.692;18.998;2024-02-16T11:51:52;100372.19;;;14.07;44.71
84255;BME280;74400;44.692;18.998;2024-02-16T11:57:56;100369.59;;;14.07;43.72
84255;BME280;74400;44.692;18.998;2024-02-16T12:00:28;100374.81;;;14.18;44.01
84255;BME280;74400;44.692;18.998;2024-02-16T12:03:00;100370.22;;;14.22;44.25
84255;BME280;74400;44.692;18.998;2024-02-16T12:09:16;100365.63;;;14.14;43.14
84255;BME280;74400;44.692;18.998;2024-02-16T12:11:43;100362.44;;;14.11;43.22
84255;BME280;74400;44.692;18.998;2024-02-16T12:14:22;100372.06;;;14.08;43.19
84255;BME280;74400;44.692;18.998;2024-02-16T12:20:13;100356.53;;;14.08;42.97
84255;BME280;74400;44.692;18.998;2024-02-16T12:22:39;100354.34;;;14.15;42.32
84255;BME280;74400;44.692;18.998;2024-02-16T12:25:05;100355.53;;;14.22;43.72
84255;BME280;74400;44.692;18.998;2024-02-16T12:27:33;100350.97;;;14.26;43.56
84255;BME280;74400;44.692;18.998;2024-02-16T12:30:02;100355.66;;;14.21;42.06
84255;BME280;74400;44.692;18.998;2024-02-16T12:32:29;100354.38;;;14.26;42.12
84255;BME280;74400;44.692;18.998;2024-02-16T12:34:57;100347.69;;;14.35;41.82
84255;BME280;74400;44.692;18.998;2024-02-16T12:37:27;100341.56;;;14.36;41.72
84255;BME280;74400;44.692;18.998;2024-02-16T12:39:52;100339.13;;;14.46;42.24
84255;BME280;74400;44.692;18.998;2024-02-16T12:42:18;100342.78;;;14.43;42.59
84255;BME280;74400;44.692;18.998;2024-02-16T12:44:45;100333.47;;;14.41;42.13
84255;BME280;74400;44.692;18.998;2024-02-16T12:47:45;100335.72;;;14.45;41.99
84255;BME280;74400;44.692;18.998;2024-02-16T12:50:12;100334.19;;;14.31;42.42
84255;BME280;74400;44.692;18.998;2024-02-16T12:52:38;100333.94;;;14.34;42.33
84255;BME280;74400;44.692;18.998;2024-02-16T12:55:07;100338.63;;;14.29;42.99
84255;BME280;74400;44.692;18.998;2024-02-16T12:57:45;100329.44;;;14.25;42.48
84255;BME280;74400;44.692;18.998;2024-02-16T13:00:12;100321.44;;;14.28;42.99
84255;BME280;74400;44.692;18.998;2024-02-16T13:02:38;100316.63;;;14.24;42.54
84255;BME280;74400;44.692;18.998;2024-02-16T13:05:04;100323.56;;;14.23;42.28
84255;BME280;74400;44.692;18.998;2024-02-16T13:07:31;100324.03;;;14.28;42.36
84255;BME280;74400;44.692;18.998;2024-02-16T13:09:56;100323.38;;;14.38;42.76
84255;BME280;74400;44.692;18.998;2024-02-16T13:12:22;100325.34;;;14.34;43.41
84255;BME280;74400;44.692;18.998;2024-02-16T13:14:49;100321.25;;;14.31;42.90
84255;BME280;74400;44.692;18.998;2024-02-16T13:17:15;100314.06;;;14.35;43.15
84255;BME280;74400;44.692;18.998;2024-02-16T13:19:40;100305.25;;;14.38;43.22
84255;BME280;74400;44.692;18.998;2024-02-16T13:22:07;100310.44;;;14.38;42.87
84255;BME280;74400;44.692;18.998;2024-02-16T13:24:32;100317.94;;;14.41;41.90
84255;BME280;74400;44.692;18.998;2024-02-16T13:26:59;100313.59;;;14.41;42.06
84255;BME280;74400;44.692;18.998;2024-02-16T13:29:24;100318.06;;;14.39;41.87
84255;BME280;74400;44.692;18.998;2024-02-16T13:31:50;100315.16;;;14.44;42.20
84255;BME280;74400;44.692;18.998;2024-02-16T13:34:16;100319.38;;;14.45;42.75
84255;BME280;74400;44.692;18.998;2024-02-16T13:36:41;100317.13;;;14.40;42.71
84255;BME280;74400;44.692;18.998;2024-02-16T13:39:07;100319.72;;;14.40;42.40
84255;BME280;74400;44.692;18.998;2024-02-16T13:41:33;100314.88;;;14.35;42.50
84255;BME280;74400;44.692;18.998;2024-02-16T13:43:59;100311.00;;;14.30;41.43
84255;BME280;74400;44.692;18.998;2024-02-16T13:46:25;100308.31;;;14.31;42.23
84255;BME280;74400;44.692;18.998;2024-02-16T13:48:51;100313.69;;;14.28;42.22
84255;BME280;74400;44.692;18.998;2024-02-16T13:51:17;100315.34;;;14.29;42.63
84255;BME280;74400;44.692;18.998;2024-02-16T13:53:42;100317.00;;;14.30;42.45
84255;BME280;74400;44.692;18.998;2024-02-16T13:58:35;100321.56;;;14.27;42.09
84255;BME280;74400;44.692;18.998;2024-02-16T14:01:02;100311.47;;;14.24;41.84
84255;BME280;74400;44.692;18.998;2024-02-16T14:03:32;100311.78;;;14.19;42.26